Coatesville, Indiana
Current Conditions -  °F | °C
As of 5:55 PM on Monday 24 Nov 2014 (Local Time) from K4I7 Reporting Station
Overcast Overcast  
Wind Chill: 27°   Ceiling: 3100
Heat Index: 36°   Visibility: 10mi
Dew Point: 28°   Wind: 14mph
Humidity: 75%   Direction: 260°W
Pressure: 29.79"   Gusts: 23mph
Location:  39.69°N, 86.67°W
Report Text: K4I7 242255Z AUTO 26012G20KT 10SM BKN031 OVC039 02/M02 A2979 RMK AO2
Loading
Personal Weather Stations






























Interactive Weather Map New forecast layout! Learn more

10-Day Weather Forecast

Advertisements
Track Severe Weather on mobile